sensor_id;sensor_type;location;lat;lon;timestamp;pressure;altitude;pressure_sealevel;temperature;humidity
68994;BME280;56054;50.968;5.816;2022-10-16T00:01:29;100298.59;;;14.12;100.00
68994;BME280;56054;50.968;5.816;2022-10-16T00:04:38;100289.78;;;14.10;100.00
68994;BME280;56054;50.968;5.816;2022-10-16T00:07:45;100287.25;;;14.12;100.00
68994;BME280;56054;50.968;5.816;2022-10-16T00:10:52;100278.38;;;14.08;100.00
68994;BME280;56054;50.968;5.816;2022-10-16T00:14:01;100287.06;;;14.07;100.00
68994;BME280;56054;50.968;5.816;2022-10-16T00:17:08;100287.88;;;14.06;100.00
68994;BME280;56054;50.968;5.816;2022-10-16T00:20:15;100267.81;;;14.05;100.00
68994;BME280;56054;50.968;5.816;2022-10-16T00:23:22;100274.00;;;14.07;99.92
68994;BME280;56054;50.968;5.816;2022-10-16T00:26:32;100275.78;;;14.08;99.93
68994;BME280;56054;50.968;5.816;2022-10-16T00:29:39;100287.75;;;14.03;100.00
68994;BME280;56054;50.968;5.816;2022-10-16T00:32:46;100270.31;;;14.02;100.00
68994;BME280;56054;50.968;5.816;2022-10-16T00:35:53;100262.31;;;13.99;100.00
68994;BME280;56054;50.968;5.816;2022-10-16T00:39:00;100269.25;;;13.99;100.00
68994;BME280;56054;50.968;5.816;2022-10-16T00:42:14;100273.69;;;14.00;100.00
68994;BME280;56054;50.968;5.816;2022-10-16T00:45:21;100276.28;;;14.00;100.00
68994;BME280;56054;50.968;5.816;2022-10-16T00:48:28;100280.47;;;13.96;100.00
68994;BME280;56054;50.968;5.816;2022-10-16T00:51:39;100295.38;;;13.99;99.80
68994;BME280;56054;50.968;5.816;2022-10-16T00:54:46;100297.91;;;13.97;99.32
68994;BME280;56054;50.968;5.816;2022-10-16T00:57:55;100293.63;;;13.98;99.23
68994;BME280;56054;50.968;5.816;2022-10-16T01:01:02;100300.38;;;13.93;99.60
68994;BME280;56054;50.968;5.816;2022-10-16T01:04:09;100300.50;;;13.96;99.44
68994;BME280;56054;50.968;5.816;2022-10-16T01:11:15;100304.00;;;13.96;98.78
68994;BME280;56054;50.968;5.816;2022-10-16T01:14:27;100315.31;;;13.97;99.02
68994;BME280;56054;50.968;5.816;2022-10-16T01:17:47;100299.53;;;13.94;98.85
68994;BME280;56054;50.968;5.816;2022-10-16T01:21:03;100296.91;;;13.94;98.84
68994;BME280;56054;50.968;5.816;2022-10-16T01:24:31;100304.84;;;13.95;98.82
68994;BME280;56054;50.968;5.816;2022-10-16T01:27:40;100314.25;;;13.91;98.94
68994;BME280;56054;50.968;5.816;2022-10-16T01:30:53;100322.03;;;13.90;99.12
68994;BME280;56054;50.968;5.816;2022-10-16T01:34:08;100317.59;;;13.89;99.24
68994;BME280;56054;50.968;5.816;2022-10-16T01:37:26;100311.41;;;13.87;98.95
68994;BME280;56054;50.968;5.816;2022-10-16T01:40:46;100316.53;;;13.84;99.03
68994;BME280;56054;50.968;5.816;2022-10-16T01:44:08;100308.50;;;13.79;99.04
68994;BME280;56054;50.968;5.816;2022-10-16T01:47:17;100308.59;;;13.82;99.05
68994;BME280;56054;50.968;5.816;2022-10-16T01:50:27;100330.13;;;13.77;99.33
68994;BME280;56054;50.968;5.816;2022-10-16T01:53:35;100329.25;;;13.76;99.49
68994;BME280;56054;50.968;5.816;2022-10-16T01:56:43;100318.88;;;13.78;99.43
68994;BME280;56054;50.968;5.816;2022-10-16T01:59:53;100315.31;;;13.76;99.58
68994;BME280;56054;50.968;5.816;2022-10-16T02:03:02;100314.34;;;13.74;99.29
68994;BME280;56054;50.968;5.816;2022-10-16T02:06:11;100325.59;;;13.73;99.11
68994;BME280;56054;50.968;5.816;2022-10-16T02:09:18;100320.38;;;13.73;99.29
68994;BME280;56054;50.968;5.816;2022-10-16T02:12:31;100317.75;;;13.73;99.28
68994;BME280;56054;50.968;5.816;2022-10-16T02:15:40;100323.91;;;13.73;99.06
68994;BME280;56054;50.968;5.816;2022-10-16T02:18:46;100309.00;;;13.70;99.23
68994;BME280;56054;50.968;5.816;2022-10-16T02:22:00;100323.63;;;13.67;99.44
68994;BME280;56054;50.968;5.816;2022-10-16T02:25:35;100309.75;;;13.68;99.51
68994;BME280;56054;50.968;5.816;2022-10-16T02:28:49;100306.22;;;13.67;99.09
68994;BME280;56054;50.968;5.816;2022-10-16T02:32:01;100320.88;;;13.64;99.27
68994;BME280;56054;50.968;5.816;2022-10-16T02:35:10;100326.91;;;13.63;99.29
68994;BME280;56054;50.968;5.816;2022-10-16T02:38:18;100319.84;;;13.60;99.19
68994;BME280;56054;50.968;5.816;2022-10-16T02:41:27;100326.91;;;13.63;99.34
68994;BME280;56054;50.968;5.816;2022-10-16T02:44:34;100324.38;;;13.64;99.51
68994;BME280;56054;50.968;5.816;2022-10-16T02:47:41;100330.44;;;13.63;98.89
68994;BME280;56054;50.968;5.816;2022-10-16T02:50:48;100327.81;;;13.63;99.31
68994;BME280;56054;50.968;5.816;2022-10-16T02:53:58;100326.03;;;13.62;99.17
68994;BME280;56054;50.968;5.816;2022-10-16T02:57:05;100317.31;;;13.62;99.30
68994;BME280;56054;50.968;5.816;2022-10-16T03:00:14;100323.53;;;13.65;98.99
68994;BME280;56054;50.968;5.816;2022-10-16T03:03:21;100326.03;;;13.62;99.74
68994;BME280;56054;50.968;5.816;2022-10-16T03:06:28;100318.19;;;13.62;99.23
68994;BME280;56054;50.968;5.816;2022-10-16T03:09:35;100317.22;;;13.60;99.63
68994;BME280;56054;50.968;5.816;2022-10-16T03:12:42;100322.44;;;13.60;99.44
68994;BME280;56054;50.968;5.816;2022-10-16T03:15:49;100332.13;;;13.63;99.16
68994;BME280;56054;50.968;5.816;2022-10-16T03:18:56;100318.94;;;13.60;99.76
68994;BME280;56054;50.968;5.816;2022-10-16T03:22:03;100320.69;;;13.59;99.61
68994;BME280;56054;50.968;5.816;2022-10-16T03:25:10;100337.78;;;13.53;99.70
68994;BME280;56054;50.968;5.816;2022-10-16T03:28:17;100329.13;;;13.54;100.00
68994;BME280;56054;50.968;5.816;2022-10-16T03:31:24;100333.59;;;13.56;99.67
68994;BME280;56054;50.968;5.816;2022-10-16T03:34:31;100340.25;;;13.49;100.00
68994;BME280;56054;50.968;5.816;2022-10-16T03:37:38;100340.03;;;13.45;100.00
68994;BME280;56054;50.968;5.816;2022-10-16T03:40:45;100348.63;;;13.42;100.00
68994;BME280;56054;50.968;5.816;2022-10-16T03:43:52;100350.41;;;13.43;100.00
68994;BME280;56054;50.968;5.816;2022-10-16T03:46:59;100356.47;;;13.42;100.00
68994;BME280;56054;50.968;5.816;2022-10-16T03:50:08;100353.84;;;13.42;100.00
68994;BME280;56054;50.968;5.816;2022-10-16T03:53:15;100345.94;;;13.41;100.00
68994;BME280;56054;50.968;5.816;2022-10-16T03:56:22;100350.22;;;13.39;100.00
68994;BME280;56054;50.968;5.816;2022-10-16T03:59:29;100364.81;;;13.35;100.00
68994;BME280;56054;50.968;5.816;2022-10-16T04:02:36;100358.50;;;13.30;100.00
68994;BME280;56054;50.968;5.816;2022-10-16T04:05:43;100375.34;;;13.37;100.00
68994;BME280;56054;50.968;5.816;2022-10-16T04:08:50;100364.91;;;13.37;100.00
68994;BME280;56054;50.968;5.816;2022-10-16T04:11:57;100369.91;;;13.32;100.00
68994;BME280;56054;50.968;5.816;2022-10-16T04:15:05;100373.53;;;13.36;100.00
68994;BME280;56054;50.968;5.816;2022-10-16T04:18:11;100370.81;;;13.33;100.00
68994;BME280;56054;50.968;5.816;2022-10-16T04:21:18;100384.81;;;13.35;100.00
68994;BME280;56054;50.968;5.816;2022-10-16T04:24:25;100394.28;;;13.33;100.00
68994;BME280;56054;50.968;5.816;2022-10-16T04:27:32;100392.34;;;13.28;100.00
68994;BME280;56054;50.968;5.816;2022-10-16T04:30:39;100406.09;;;13.26;100.00
68994;BME280;56054;50.968;5.816;2022-10-16T04:33:46;100402.53;;;13.24;100.00
68994;BME280;56054;50.968;5.816;2022-10-16T04:36:54;100400.88;;;13.26;100.00
68994;BME280;56054;50.968;5.816;2022-10-16T04:40:00;100401.00;;;13.27;100.00
68994;BME280;56054;50.968;5.816;2022-10-16T04:43:07;100404.19;;;13.22;100.00
68994;BME280;56054;50.968;5.816;2022-10-16T04:46:14;100393.00;;;13.24;100.00
68994;BME280;56054;50.968;5.816;2022-10-16T04:49:21;100417.28;;;13.23;100.00
68994;BME280;56054;50.968;5.816;2022-10-16T04:52:28;100424.16;;;13.21;100.00
68994;BME280;56054;50.968;5.816;2022-10-16T04:55:35;100409.34;;;13.20;100.00
68994;BME280;56054;50.968;5.816;2022-10-16T04:58:42;100415.53;;;13.22;100.00
68994;BME280;56054;50.968;5.816;2022-10-16T05:01:49;100424.56;;;13.29;100.00
68994;BME280;56054;50.968;5.816;2022-10-16T05:04:56;100426.94;;;13.24;100.00
68994;BME280;56054;50.968;5.816;2022-10-16T05:08:03;100419.09;;;13.24;100.00
68994;BME280;56054;50.968;5.816;2022-10-16T05:11:10;100432.16;;;13.24;100.00
68994;BME280;56054;50.968;5.816;2022-10-16T05:14:17;100421.72;;;13.24;100.00
68994;BME280;56054;50.968;5.816;2022-10-16T05:17:25;100423.41;;;13.24;100.00
68994;BME280;56054;50.968;5.816;2022-10-16T05:20:44;100436.41;;;13.22;100.00
68994;BME280;56054;50.968;5.816;2022-10-16T05:23:53;100438.03;;;13.20;100.00
68994;BME280;56054;50.968;5.816;2022-10-16T05:27:00;100449.31;;;13.19;100.00
68994;BME280;56054;50.968;5.816;2022-10-16T05:30:08;100440.78;;;13.23;100.00
68994;BME280;56054;50.968;5.816;2022-10-16T05:33:23;100437.38;;;13.24;100.00
68994;BME280;56054;50.968;5.816;2022-10-16T05:36:30;100441.63;;;13.22;100.00
68994;BME280;56054;50.968;5.816;2022-10-16T05:39:38;100431.97;;;13.21;100.00
68994;BME280;56054;50.968;5.816;2022-10-16T05:42:45;100447.81;;;13.24;100.00
68994;BME280;56054;50.968;5.816;2022-10-16T05:46:03;100458.56;;;13.31;100.00
68994;BME280;56054;50.968;5.816;2022-10-16T05:49:10;100455.63;;;13.24;100.00
68994;BME280;56054;50.968;5.816;2022-10-16T05:52:43;100472.44;;;13.30;100.00
68994;BME280;56054;50.968;5.816;2022-10-16T05:55:54;100458.63;;;13.32;100.00
68994;BME280;56054;50.968;5.816;2022-10-16T05:59:03;100473.59;;;13.36;100.00
68994;BME280;56054;50.968;5.816;2022-10-16T06:02:12;100483.13;;;13.36;100.00
68994;BME280;56054;50.968;5.816;2022-10-16T06:05:19;100483.09;;;13.34;100.00
68994;BME280;56054;50.968;5.816;2022-10-16T06:08:26;100494.28;;;13.32;100.00
68994;BME280;56054;50.968;5.816;2022-10-16T06:11:33;100489.88;;;13.31;100.00
68994;BME280;56054;50.968;5.816;2022-10-16T06:14:40;100502.25;;;13.35;100.00
68994;BME280;56054;50.968;5.816;2022-10-16T06:17:47;100513.78;;;13.40;100.00
68994;BME280;56054;50.968;5.816;2022-10-16T06:20:55;100513.50;;;13.34;100.00
68994;BME280;56054;50.968;5.816;2022-10-16T06:24:03;100524.09;;;13.37;100.00
68994;BME280;56054;50.968;5.816;2022-10-16T06:27:09;100531.09;;;13.38;100.00
68994;BME280;56054;50.968;5.816;2022-10-16T06:30:16;100524.00;;;13.35;100.00
68994;BME280;56054;50.968;5.816;2022-10-16T06:33:24;100523.13;;;13.35;100.00
68994;BME280;56054;50.968;5.816;2022-10-16T06:36:31;100535.19;;;13.33;100.00
68994;BME280;56054;50.968;5.816;2022-10-16T06:39:37;100544.88;;;13.35;100.00
68994;BME280;56054;50.968;5.816;2022-10-16T06:42:44;100535.34;;;13.36;100.00
68994;BME280;56054;50.968;5.816;2022-10-16T06:45:56;100551.22;;;13.40;100.00
68994;BME280;56054;50.968;5.816;2022-10-16T06:49:30;100545.72;;;13.34;100.00
68994;BME280;56054;50.968;5.816;2022-10-16T06:52:53;100563.91;;;13.33;100.00
68994;BME280;56054;50.968;5.816;2022-10-16T06:56:20;100562.88;;;13.29;100.00
68994;BME280;56054;50.968;5.816;2022-10-16T06:59:28;100571.59;;;13.30;100.00
68994;BME280;56054;50.968;5.816;2022-10-16T07:02:37;100579.56;;;13.33;100.00
68994;BME280;56054;50.968;5.816;2022-10-16T07:05:47;100577.78;;;13.32;100.00
68994;BME280;56054;50.968;5.816;2022-10-16T07:08:56;100588.13;;;13.30;100.00
68994;BME280;56054;50.968;5.816;2022-10-16T07:12:05;100593.50;;;13.33;100.00
68994;BME280;56054;50.968;5.816;2022-10-16T07:15:12;100601.41;;;13.35;100.00
68994;BME280;56054;50.968;5.816;2022-10-16T07:18:18;100599.09;;;13.41;100.00
68994;BME280;56054;50.968;5.816;2022-10-16T07:21:28;100604.78;;;13.50;100.00
68994;BME280;56054;50.968;5.816;2022-10-16T07:24:36;100610.59;;;13.62;100.00
68994;BME280;56054;50.968;5.816;2022-10-16T07:27:43;100610.91;;;13.68;100.00
68994;BME280;56054;50.968;5.816;2022-10-16T07:30:49;100616.41;;;13.75;100.00
68994;BME280;56054;50.968;5.816;2022-10-16T07:33:58;100621.09;;;13.82;100.00
68994;BME280;56054;50.968;5.816;2022-10-16T07:37:06;100621.56;;;13.91;100.00
68994;BME280;56054;50.968;5.816;2022-10-16T07:40:13;100625.28;;;13.96;100.00
68994;BME280;56054;50.968;5.816;2022-10-16T07:43:19;100631.22;;;14.11;99.95
68994;BME280;56054;50.968;5.816;2022-10-16T07:46:27;100634.22;;;14.19;99.42
68994;BME280;56054;50.968;5.816;2022-10-16T07:49:34;100632.00;;;14.28;99.73
68994;BME280;56054;50.968;5.816;2022-10-16T07:52:41;100639.09;;;14.31;98.89
68994;BME280;56054;50.968;5.816;2022-10-16T07:55:48;100636.09;;;14.41;97.90
68994;BME280;56054;50.968;5.816;2022-10-16T07:58:56;100639.97;;;14.49;97.45
68994;BME280;56054;50.968;5.816;2022-10-16T08:02:29;100648.94;;;14.54;96.87
68994;BME280;56054;50.968;5.816;2022-10-16T08:05:36;100667.66;;;14.64;96.42
68994;BME280;56054;50.968;5.816;2022-10-16T08:08:43;100669.88;;;14.74;95.97
68994;BME280;56054;50.968;5.816;2022-10-16T08:11:50;100665.88;;;14.82;95.82
68994;BME280;56054;50.968;5.816;2022-10-16T08:14:57;100676.88;;;14.94;94.89
68994;BME280;56054;50.968;5.816;2022-10-16T08:18:05;100694.72;;;15.03;94.07
68994;BME280;56054;50.968;5.816;2022-10-16T08:21:15;100698.56;;;15.11;93.16
68994;BME280;56054;50.968;5.816;2022-10-16T08:24:23;100691.88;;;15.18;93.27
68994;BME280;56054;50.968;5.816;2022-10-16T08:27:33;100701.50;;;15.19;92.80
68994;BME280;56054;50.968;5.816;2022-10-16T08:30:40;100704.72;;;15.33;92.38
68994;BME280;56054;50.968;5.816;2022-10-16T08:33:47;100707.56;;;15.37;92.19
68994;BME280;56054;50.968;5.816;2022-10-16T08:36:54;100711.66;;;15.52;91.83
68994;BME280;56054;50.968;5.816;2022-10-16T08:40:01;100716.25;;;15.57;89.14
68994;BME280;56054;50.968;5.816;2022-10-16T08:49:41;100731.84;;;15.95;87.33
68994;BME280;56054;50.968;5.816;2022-10-16T08:52:54;100718.00;;;15.99;86.87
68994;BME280;56054;50.968;5.816;2022-10-16T08:56:02;100726.25;;;16.08;86.02
68994;BME280;56054;50.968;5.816;2022-10-16T08:59:14;100726.97;;;16.04;85.18
68994;BME280;56054;50.968;5.816;2022-10-16T09:15:47;100751.63;;;16.53;82.27
68994;BME280;56054;50.968;5.816;2022-10-16T09:22:27;100751.00;;;16.58;81.36
68994;BME280;56054;50.968;5.816;2022-10-16T09:25:45;100760.16;;;16.69;79.54
68994;BME280;56054;50.968;5.816;2022-10-16T09:28:53;100759.56;;;16.54;81.40
68994;BME280;56054;50.968;5.816;2022-10-16T09:32:18;100750.50;;;16.68;79.46
68994;BME280;56054;50.968;5.816;2022-10-16T09:35:50;100751.56;;;16.74;79.06
68994;BME280;56054;50.968;5.816;2022-10-16T09:39:09;100753.81;;;16.85;79.78
68994;BME280;56054;50.968;5.816;2022-10-16T09:42:21;100751.22;;;16.87;78.05
68994;BME280;56054;50.968;5.816;2022-10-16T09:45:30;100746.44;;;16.99;78.84
68994;BME280;56054;50.968;5.816;2022-10-16T09:48:47;100753.16;;;16.91;78.02
68994;BME280;56054;50.968;5.816;2022-10-16T09:52:14;100762.50;;;17.07;76.87
68994;BME280;56054;50.968;5.816;2022-10-16T09:55:22;100751.50;;;17.17;76.92
68994;BME280;56054;50.968;5.816;2022-10-16T09:58:34;100750.75;;;17.21;75.60
68994;BME280;56054;50.968;5.816;2022-10-16T10:08:56;100752.47;;;17.45;74.31
68994;BME280;56054;50.968;5.816;2022-10-16T10:12:04;100752.22;;;17.37;73.91
68994;BME280;56054;50.968;5.816;2022-10-16T10:15:15;100741.00;;;17.67;73.30
68994;BME280;56054;50.968;5.816;2022-10-16T10:18:23;100754.13;;;17.67;72.38
68994;BME280;56054;50.968;5.816;2022-10-16T10:21:33;100758.66;;;17.71;72.76
68994;BME280;56054;50.968;5.816;2022-10-16T10:24:40;100764.88;;;17.73;72.92
68994;BME280;56054;50.968;5.816;2022-10-16T10:32:46;100766.38;;;17.90;71.94
68994;BME280;56054;50.968;5.816;2022-10-16T10:39:43;100778.03;;;17.99;70.16
68994;BME280;56054;50.968;5.816;2022-10-16T10:43:04;100796.66;;;18.05;70.38
68994;BME280;56054;50.968;5.816;2022-10-16T10:46:55;100786.94;;;18.04;71.25
68994;BME280;56054;50.968;5.816;2022-10-16T10:50:43;100795.25;;;18.16;72.36
68994;BME280;56054;50.968;5.816;2022-10-16T10:54:29;100781.69;;;18.29;69.57
68994;BME280;56054;50.968;5.816;2022-10-16T11:05:45;100768.91;;;18.42;69.59
68994;BME280;56054;50.968;5.816;2022-10-16T11:16:39;100804.63;;;18.08;69.06
68994;BME280;56054;50.968;5.816;2022-10-16T11:27:06;100796.91;;;18.39;70.13
68994;BME280;56054;50.968;5.816;2022-10-16T11:30:24;100800.50;;;18.16;70.56
68994;BME280;56054;50.968;5.816;2022-10-16T11:33:38;100807.59;;;18.18;70.53
68994;BME280;56054;50.968;5.816;2022-10-16T11:36:53;100793.41;;;18.13;70.77
68994;BME280;56054;50.968;5.816;2022-10-16T11:40:28;100791.25;;;18.27;69.92
68994;BME280;56054;50.968;5.816;2022-10-16T11:44:06;100788.16;;;18.40;70.22
68994;BME280;56054;50.968;5.816;2022-10-16T11:58:20;100801.25;;;18.66;68.22
68994;BME280;56054;50.968;5.816;2022-10-16T12:05:25;100784.63;;;18.67;68.07
68994;BME280;56054;50.968;5.816;2022-10-16T12:09:05;100780.06;;;18.61;68.70
68994;BME280;56054;50.968;5.816;2022-10-16T12:19:36;100791.22;;;18.81;66.61
68994;BME280;56054;50.968;5.816;2022-10-16T12:23:28;100787.63;;;18.78;67.20
68994;BME280;56054;50.968;5.816;2022-10-16T12:26:38;100788.84;;;18.62;67.92
68994;BME280;56054;50.968;5.816;2022-10-16T12:29:46;100787.16;;;18.64;68.46
68994;BME280;56054;50.968;5.816;2022-10-16T12:32:58;100789.94;;;18.69;66.00
68994;BME280;56054;50.968;5.816;2022-10-16T12:36:26;100789.53;;;18.84;67.30
68994;BME280;56054;50.968;5.816;2022-10-16T12:39:35;100794.44;;;19.00;67.81
68994;BME280;56054;50.968;5.816;2022-10-16T12:42:43;100797.59;;;19.18;66.88
68994;BME280;56054;50.968;5.816;2022-10-16T12:49:48;100794.78;;;19.12;65.21
68994;BME280;56054;50.968;5.816;2022-10-16T12:52:58;100788.13;;;19.25;65.32
68994;BME280;56054;50.968;5.816;2022-10-16T13:00:40;100780.59;;;19.07;64.11
68994;BME280;56054;50.968;5.816;2022-10-16T13:08:26;100778.41;;;18.92;64.81
68994;BME280;56054;50.968;5.816;2022-10-16T13:12:03;100770.69;;;18.98;64.67
68994;BME280;56054;50.968;5.816;2022-10-16T13:18:54;100782.44;;;19.10;64.11
68994;BME280;56054;50.968;5.816;2022-10-16T13:26:55;100780.84;;;18.86;64.42
68994;BME280;56054;50.968;5.816;2022-10-16T13:38:26;100807.50;;;18.97;68.56
68994;BME280;56054;50.968;5.816;2022-10-16T13:41:40;100797.00;;;18.98;69.18
68994;BME280;56054;50.968;5.816;2022-10-16T13:45:17;100797.88;;;18.97;69.64
68994;BME280;56054;50.968;5.816;2022-10-16T13:48:34;100791.97;;;19.06;68.52
68994;BME280;56054;50.968;5.816;2022-10-16T13:51:41;100795.75;;;19.14;67.03
68994;BME280;56054;50.968;5.816;2022-10-16T13:55:18;100793.41;;;18.95;65.40
68994;BME280;56054;50.968;5.816;2022-10-16T13:58:34;100810.91;;;18.94;66.53
68994;BME280;56054;50.968;5.816;2022-10-16T14:01:55;100809.94;;;18.91;66.55
68994;BME280;56054;50.968;5.816;2022-10-16T14:05:19;100795.69;;;18.84;65.22
68994;BME280;56054;50.968;5.816;2022-10-16T14:08:33;100796.69;;;18.88;65.06
68994;BME280;56054;50.968;5.816;2022-10-16T14:11:51;100802.41;;;19.03;66.41
68994;BME280;56054;50.968;5.816;2022-10-16T14:15:15;100802.19;;;18.95;67.08
68994;BME280;56054;50.968;5.816;2022-10-16T14:18:40;100806.69;;;18.99;69.37
68994;BME280;56054;50.968;5.816;2022-10-16T14:21:48;100806.00;;;18.76;70.09
68994;BME280;56054;50.968;5.816;2022-10-16T14:24:56;100810.75;;;18.61;72.71
68994;BME280;56054;50.968;5.816;2022-10-16T14:28:04;100799.31;;;18.60;73.81
68994;BME280;56054;50.968;5.816;2022-10-16T14:31:42;100806.00;;;18.49;74.62
68994;BME280;56054;50.968;5.816;2022-10-16T14:34:54;100794.47;;;18.46;76.62
68994;BME280;56054;50.968;5.816;2022-10-16T14:38:03;100788.06;;;18.37;76.44
68994;BME280;56054;50.968;5.816;2022-10-16T14:41:13;100782.81;;;18.37;76.21
68994;BME280;56054;50.968;5.816;2022-10-16T14:44:38;100786.16;;;18.33;76.12
68994;BME280;56054;50.968;5.816;2022-10-16T14:47:57;100769.41;;;18.30;74.16
68994;BME280;56054;50.968;5.816;2022-10-16T14:51:05;100765.91;;;18.31;74.38
68994;BME280;56054;50.968;5.816;2022-10-16T14:54:27;100756.34;;;18.33;73.71
68994;BME280;56054;50.968;5.816;2022-10-16T14:57:38;100763.53;;;18.38;74.70
68994;BME280;56054;50.968;5.816;2022-10-16T15:00:46;100768.41;;;18.26;74.75
68994;BME280;56054;50.968;5.816;2022-10-16T15:04:19;100763.59;;;18.13;74.09
68994;BME280;56054;50.968;5.816;2022-10-16T15:07:26;100762.72;;;18.12;74.29
68994;BME280;56054;50.968;5.816;2022-10-16T15:14:03;100773.38;;;18.17;75.49
68994;BME280;56054;50.968;5.816;2022-10-16T15:17:19;100777.69;;;18.15;75.21
68994;BME280;56054;50.968;5.816;2022-10-16T15:20:40;100781.91;;;18.10;75.09
68994;BME280;56054;50.968;5.816;2022-10-16T15:24:00;100774.81;;;18.07;75.43
68994;BME280;56054;50.968;5.816;2022-10-16T15:27:07;100774.59;;;18.01;74.78
68994;BME280;56054;50.968;5.816;2022-10-16T15:30:18;100784.38;;;18.05;75.53
68994;BME280;56054;50.968;5.816;2022-10-16T15:33:28;100775.00;;;18.13;75.72
68994;BME280;56054;50.968;5.816;2022-10-16T15:36:37;100777.22;;;18.01;77.55
68994;BME280;56054;50.968;5.816;2022-10-16T15:39:44;100778.75;;;17.94;78.90
68994;BME280;56054;50.968;5.816;2022-10-16T15:42:51;100767.19;;;17.89;78.82
68994;BME280;56054;50.968;5.816;2022-10-16T15:46:01;100771.41;;;17.84;78.16
68994;BME280;56054;50.968;5.816;2022-10-16T15:49:09;100760.06;;;17.85;77.84
68994;BME280;56054;50.968;5.816;2022-10-16T15:52:16;100766.72;;;17.77;76.51
68994;BME280;56054;50.968;5.816;2022-10-16T15:55:23;100764.28;;;17.80;77.59
68994;BME280;56054;50.968;5.816;2022-10-16T15:58:30;100759.59;;;17.73;77.46
68994;BME280;56054;50.968;5.816;2022-10-16T16:01:37;100748.88;;;17.67;78.15
68994;BME280;56054;50.968;5.816;2022-10-16T16:04:44;100754.03;;;17.64;78.37
68994;BME280;56054;50.968;5.816;2022-10-16T16:07:51;100754.03;;;17.64;78.30
68994;BME280;56054;50.968;5.816;2022-10-16T16:11:09;100747.59;;;17.55;78.85
68994;BME280;56054;50.968;5.816;2022-10-16T16:14:18;100750.88;;;17.48;78.96
68994;BME280;56054;50.968;5.816;2022-10-16T16:17:25;100752.56;;;17.48;78.96
68994;BME280;56054;50.968;5.816;2022-10-16T16:20:32;100762.19;;;17.47;79.60
68994;BME280;56054;50.968;5.816;2022-10-16T16:23:39;100762.00;;;17.41;80.09
68994;BME280;56054;50.968;5.816;2022-10-16T16:26:46;100761.22;;;17.44;79.97
68994;BME280;56054;50.968;5.816;2022-10-16T16:30:19;100760.09;;;17.37;80.98
68994;BME280;56054;50.968;5.816;2022-10-16T16:33:27;100764.19;;;17.29;81.01
68994;BME280;56054;50.968;5.816;2022-10-16T16:36:35;100750.91;;;17.26;80.85
68994;BME280;56054;50.968;5.816;2022-10-16T16:39:42;100755.81;;;17.17;81.13
68994;BME280;56054;50.968;5.816;2022-10-16T16:42:49;100756.69;;;17.16;80.66
68994;BME280;56054;50.968;5.816;2022-10-16T16:46:01;100757.38;;;17.11;80.94
68994;BME280;56054;50.968;5.816;2022-10-16T16:49:12;100753.94;;;17.13;81.27
68994;BME280;56054;50.968;5.816;2022-10-16T16:52:23;100753.66;;;17.05;81.61
68994;BME280;56054;50.968;5.816;2022-10-16T16:55:32;100763.03;;;16.98;81.75
68994;BME280;56054;50.968;5.816;2022-10-16T16:58:39;100763.16;;;17.01;81.94
68994;BME280;56054;50.968;5.816;2022-10-16T17:01:46;100775.28;;;16.98;82.20
68994;BME280;56054;50.968;5.816;2022-10-16T17:04:53;100780.47;;;16.96;82.51
68994;BME280;56054;50.968;5.816;2022-10-16T17:08:00;100768.22;;;16.97;82.57
68994;BME280;56054;50.968;5.816;2022-10-16T17:11:13;100764.50;;;16.90;83.08
68994;BME280;56054;50.968;5.816;2022-10-16T17:14:20;100763.41;;;16.85;83.44
68994;BME280;56054;50.968;5.816;2022-10-16T17:17:28;100780.25;;;16.90;83.36
68994;BME280;56054;50.968;5.816;2022-10-16T17:20:35;100776.59;;;16.86;83.31
68994;BME280;56054;50.968;5.816;2022-10-16T17:23:53;100778.22;;;16.83;84.18
68994;BME280;56054;50.968;5.816;2022-10-16T17:27:08;100768.53;;;16.82;84.51
68994;BME280;56054;50.968;5.816;2022-10-16T17:30:15;100776.50;;;16.85;84.32
68994;BME280;56054;50.968;5.816;2022-10-16T17:33:22;100763.84;;;16.75;85.00
68994;BME280;56054;50.968;5.816;2022-10-16T17:36:31;100766.63;;;16.78;84.96
68994;BME280;56054;50.968;5.816;2022-10-16T17:39:38;100750.06;;;16.79;84.83
68994;BME280;56054;50.968;5.816;2022-10-16T17:42:45;100759.38;;;16.72;86.14
68994;BME280;56054;50.968;5.816;2022-10-16T17:45:52;100769.16;;;16.76;86.15
68994;BME280;56054;50.968;5.816;2022-10-16T17:49:05;100775.97;;;16.71;87.76
68994;BME280;56054;50.968;5.816;2022-10-16T17:52:13;100776.84;;;16.72;87.51
68994;BME280;56054;50.968;5.816;2022-10-16T17:55:20;100782.19;;;16.73;87.93
68994;BME280;56054;50.968;5.816;2022-10-16T17:58:27;100795.16;;;16.70;88.83
68994;BME280;56054;50.968;5.816;2022-10-16T18:01:39;100824.78;;;16.67;89.54
68994;BME280;56054;50.968;5.816;2022-10-16T18:04:46;100848.63;;;16.51;91.15
68994;BME280;56054;50.968;5.816;2022-10-16T18:07:53;100858.56;;;16.58;90.72
68994;BME280;56054;50.968;5.816;2022-10-16T18:11:00;100864.69;;;16.59;91.13
68994;BME280;56054;50.968;5.816;2022-10-16T18:14:15;100871.91;;;16.43;93.98
68994;BME280;56054;50.968;5.816;2022-10-16T18:17:53;100864.44;;;16.32;95.14
68994;BME280;56054;50.968;5.816;2022-10-16T18:21:02;100866.91;;;16.29;97.81
68994;BME280;56054;50.968;5.816;2022-10-16T18:24:15;100881.94;;;16.33;97.73
68994;BME280;56054;50.968;5.816;2022-10-16T18:27:22;100882.28;;;16.40;96.38
68994;BME280;56054;50.968;5.816;2022-10-16T18:30:29;100892.72;;;16.39;98.66
68994;BME280;56054;50.968;5.816;2022-10-16T18:33:39;100882.34;;;16.42;97.84
68994;BME280;56054;50.968;5.816;2022-10-16T18:36:48;100884.38;;;16.28;99.62
68994;BME280;56054;50.968;5.816;2022-10-16T18:39:55;100882.06;;;16.36;100.00